createdAt,value
2019-03-19T00:00:51.802Z,0.98
2019-03-19T00:01:51.743Z,1.00
2019-03-19T00:02:51.735Z,0.92
2019-03-19T00:03:51.629Z,0.94
2019-03-19T00:04:51.581Z,0.92
2019-03-19T00:05:51.510Z,0.94
2019-03-19T00:06:51.450Z,0.92
2019-03-19T00:07:51.394Z,0.91
2019-03-19T00:08:51.360Z,0.92
2019-03-19T00:09:51.281Z,0.92
2019-03-19T00:10:51.224Z,0.88
2019-03-19T00:11:51.161Z,0.90
2019-03-19T00:12:51.105Z,0.83
2019-03-19T00:13:51.074Z,0.86
2019-03-19T00:14:50.994Z,0.88
2019-03-19T00:15:50.932Z,0.80
2019-03-19T00:16:50.872Z,0.80
2019-03-19T00:17:50.816Z,0.86
2019-03-19T00:18:50.777Z,0.80
2019-03-19T00:19:50.693Z,0.83
2019-03-19T00:20:50.638Z,0.77
2019-03-19T00:21:50.585Z,0.77
2019-03-19T00:22:50.524Z,0.79
2019-03-19T00:23:50.488Z,0.77
2019-03-19T00:24:50.410Z,0.80
2019-03-19T00:25:50.407Z,0.84
2019-03-19T00:26:50.294Z,0.86
2019-03-19T00:27:50.233Z,0.79
2019-03-19T00:28:50.205Z,0.83
2019-03-19T00:29:50.115Z,0.91
2019-03-19T00:30:50.059Z,0.88
2019-03-19T00:31:50.001Z,0.90
2019-03-19T00:32:49.944Z,0.88
2019-03-19T00:33:49.910Z,0.82
2019-03-19T00:34:49.827Z,0.86
2019-03-19T00:35:49.768Z,0.86
2019-03-19T00:36:49.712Z,0.84
2019-03-19T00:37:49.650Z,0.88
2019-03-19T00:38:49.620Z,0.91
2019-03-19T00:39:49.534Z,0.84
2019-03-19T00:40:49.478Z,0.86
2019-03-19T00:41:49.419Z,0.88
2019-03-19T00:42:49.363Z,0.84
2019-03-19T00:43:49.324Z,0.90
2019-03-19T00:44:49.245Z,0.88
2019-03-19T00:45:49.190Z,0.91
2019-03-19T00:46:49.131Z,0.91
2019-03-19T00:47:49.070Z,0.84
2019-03-19T00:48:49.035Z,0.88
2019-03-19T00:49:48.956Z,0.91
2019-03-19T00:50:48.897Z,0.95
2019-03-19T00:51:48.841Z,0.88
2019-03-19T00:52:48.781Z,0.94
2019-03-19T00:53:48.761Z,0.91
2019-03-19T00:54:48.664Z,0.86
2019-03-19T00:55:48.611Z,0.94
2019-03-19T00:56:48.548Z,0.91
2019-03-19T00:57:48.489Z,0.86
2019-03-19T00:58:48.453Z,0.84
2019-03-19T00:59:48.385Z,0.77
2019-03-19T01:00:48.314Z,0.82
2019-03-19T01:01:48.259Z,0.86
2019-03-19T01:02:48.200Z,0.86
2019-03-19T01:03:48.164Z,0.79
2019-03-19T01:04:48.083Z,0.83
2019-03-19T01:05:48.027Z,0.77
2019-03-19T01:06:47.967Z,0.80
2019-03-19T01:07:47.907Z,0.79
2019-03-19T01:08:47.879Z,0.74
2019-03-19T01:09:47.792Z,0.77
2019-03-19T01:10:47.736Z,0.74
2019-03-19T01:11:47.673Z,0.74
2019-03-19T01:12:47.626Z,0.72
2019-03-19T01:13:47.583Z,0.77
2019-03-19T01:14:47.510Z,0.79
2019-03-19T01:15:47.444Z,0.72
2019-03-19T01:16:47.384Z,0.72
2019-03-19T01:17:47.328Z,0.70
2019-03-19T01:18:47.293Z,0.68
2019-03-19T01:19:47.210Z,0.70
2019-03-19T01:20:47.157Z,0.70
2019-03-19T01:21:47.101Z,0.68
2019-03-19T01:22:47.036Z,0.74
2019-03-19T01:23:47.000Z,0.62
2019-03-19T01:24:46.921Z,0.70
2019-03-19T01:25:55.360Z,0.79
2019-03-19T01:26:46.802Z,0.59
2019-03-19T01:27:46.744Z,0.50
2019-03-19T01:28:46.711Z,0.58
2019-03-19T01:29:46.628Z,0.45
2019-03-19T01:30:46.570Z,0.35
2019-03-19T01:31:46.513Z,0.40
2019-03-19T01:32:46.450Z,0.42
2019-03-19T01:33:46.419Z,0.42
2019-03-19T01:34:46.334Z,0.45
2019-03-19T01:35:46.282Z,0.42
2019-03-19T01:36:46.220Z,0.43
2019-03-19T01:37:46.165Z,0.45
2019-03-19T01:38:46.132Z,0.51
2019-03-19T01:39:46.046Z,0.47
2019-03-19T01:40:45.989Z,0.42
2019-03-19T01:41:45.931Z,0.35
2019-03-19T01:42:45.876Z,0.40
2019-03-19T01:43:45.816Z,0.39
2019-03-19T01:44:45.781Z,0.36
2019-03-19T01:45:45.694Z,0.43
2019-03-19T01:46:45.639Z,0.36
2019-03-19T01:47:45.577Z,0.39
2019-03-19T01:48:45.523Z,0.37
2019-03-19T01:49:45.490Z,0.43
2019-03-19T01:50:45.404Z,0.40
2019-03-19T01:51:45.349Z,0.37
2019-03-19T01:52:45.292Z,0.46
2019-03-19T01:53:45.230Z,0.37
2019-03-19T01:54:45.194Z,0.37
2019-03-19T01:55:45.117Z,0.39
2019-03-19T01:56:45.057Z,0.40
2019-03-19T01:57:45.001Z,0.36
2019-03-19T01:58:44.938Z,0.46
2019-03-19T01:59:44.908Z,0.47
2019-03-19T02:00:44.823Z,0.43
2019-03-19T02:01:44.770Z,0.50
2019-03-19T02:02:44.710Z,0.43
2019-03-19T02:03:44.648Z,0.39
2019-03-19T02:04:44.613Z,0.37
2019-03-19T02:05:44.533Z,0.43
2019-03-19T02:06:44.473Z,0.43
2019-03-19T02:07:44.422Z,0.29
2019-03-19T02:08:44.359Z,0.35
2019-03-19T02:09:44.320Z,0.22
2019-03-19T02:10:44.240Z,0.32
2019-03-19T02:11:44.183Z,0.32
2019-03-19T02:12:44.129Z,0.35
2019-03-19T02:13:44.079Z,0.22
2019-03-19T02:14:44.032Z,0.22
2019-03-19T02:15:43.951Z,0.25
2019-03-19T02:16:43.892Z,0.25
2019-03-19T02:17:43.837Z,0.33
2019-03-19T02:18:43.770Z,0.19
2019-03-19T02:19:43.746Z,0.33
2019-03-19T02:20:43.663Z,0.32
2019-03-19T02:21:43.600Z,0.33
2019-03-19T02:22:43.534Z,0.39
2019-03-19T02:23:43.490Z,0.37
2019-03-19T02:24:43.450Z,0.42
2019-03-19T02:25:43.366Z,0.39
2019-03-19T02:26:43.306Z,0.40
2019-03-19T02:27:43.251Z,0.40
2019-03-19T02:28:43.192Z,0.36
2019-03-19T02:29:43.161Z,0.39
2019-03-19T02:30:43.079Z,0.33
2019-03-19T02:31:43.019Z,0.32
2019-03-19T02:32:42.972Z,0.22
2019-03-19T02:33:42.899Z,0.22
2019-03-19T02:34:42.864Z,0.25
2019-03-19T02:35:42.794Z,0.35
2019-03-19T02:36:42.737Z,0.29
2019-03-19T02:37:42.665Z,0.35
2019-03-19T02:38:42.615Z,0.28
2019-03-19T02:39:42.570Z,0.37
2019-03-19T02:40:42.493Z,0.35
2019-03-19T02:41:42.437Z,0.33
2019-03-19T02:42:42.380Z,0.37
2019-03-19T02:43:42.318Z,0.29
2019-03-19T02:44:42.285Z,0.35
2019-03-19T02:45:42.207Z,0.35
2019-03-19T02:46:42.138Z,0.32
2019-03-19T02:47:42.089Z,0.28
2019-03-19T02:48:42.023Z,0.25
2019-03-19T02:49:41.993Z,0.22
2019-03-19T02:50:41.911Z,0.25
2019-03-19T02:51:41.849Z,0.15
2019-03-19T02:52:41.791Z,0.07
2019-03-19T02:53:41.739Z,0.15
2019-03-19T02:54:41.703Z,0.07
2019-03-19T02:55:41.616Z,0.01
2019-03-19T02:56:41.557Z,0.00
2019-03-19T02:57:41.514Z,0.00
2019-03-19T02:58:41.440Z,0.01
2019-03-19T02:59:41.406Z,0.06
2019-03-19T03:00:41.328Z,0.01
2019-03-19T03:01:41.270Z,0.03
2019-03-19T03:02:41.300Z,0.10
2019-03-19T03:03:41.148Z,0.04
2019-03-19T03:04:41.114Z,0.14
2019-03-19T03:05:41.035Z,0.10
2019-03-19T03:06:40.974Z,0.12
2019-03-19T03:07:40.916Z,0.12
2019-03-19T03:08:40.857Z,0.14
2019-03-19T03:09:40.821Z,0.14
2019-03-19T03:10:40.738Z,0.12
2019-03-19T03:11:40.682Z,0.19
2019-03-19T03:12:40.619Z,0.12
2019-03-19T03:13:40.562Z,0.10
2019-03-19T03:14:40.533Z,0.19
2019-03-19T03:15:40.448Z,0.19
2019-03-19T03:16:40.395Z,0.15
2019-03-19T03:17:40.335Z,0.04
2019-03-19T03:20:11.956Z,0.10
2019-03-19T03:21:11.875Z,0.00
2019-03-19T03:22:11.835Z,-0.04
2019-03-19T03:23:11.768Z,0.03
2019-03-19T03:24:11.699Z,0.00
2019-03-19T03:25:11.672Z,-0.01
2019-03-19T03:26:11.596Z,-0.03
2019-03-19T03:27:11.581Z,0.00
2019-03-19T03:28:11.471Z,0.00
2019-03-19T03:29:11.456Z,0.04
2019-03-19T03:30:11.375Z,0.07
2019-03-19T03:31:11.294Z,-0.08
2019-03-19T03:32:11.266Z,0.06
2019-03-19T03:33:11.171Z,-0.03
2019-03-19T03:34:11.113Z,-0.04
2019-03-19T03:35:11.109Z,0.06
2019-03-19T03:36:11.001Z,-0.06
2019-03-19T03:37:10.947Z,-0.03
2019-03-19T03:38:10.909Z,-0.04
2019-03-19T03:39:10.841Z,-0.04
2019-03-19T03:40:10.788Z,-0.11
2019-03-19T03:41:10.723Z,-0.15
2019-03-19T03:42:10.653Z,-0.11
2019-03-19T03:43:10.600Z,-0.15
2019-03-19T03:44:10.545Z,-0.19
2019-03-19T03:45:10.498Z,-0.18
2019-03-19T03:46:10.420Z,-0.14
2019-03-19T03:47:10.355Z,-0.19
2019-03-19T03:48:10.310Z,-0.28
2019-03-19T03:49:10.238Z,-0.22
2019-03-19T03:50:10.205Z,-0.25
2019-03-19T03:51:10.125Z,-0.33
2019-03-19T03:52:10.059Z,-0.32
2019-03-19T03:53:10.001Z,-0.25
2019-03-19T03:54:09.975Z,-0.29
2019-03-19T03:55:09.905Z,-0.28
2019-03-19T03:56:09.825Z,-0.29
2019-03-19T03:57:09.793Z,-0.24
2019-03-19T03:58:09.718Z,-0.37
2019-03-19T03:59:09.645Z,-0.29
2019-03-19T04:00:09.621Z,-0.39
2019-03-19T04:01:09.562Z,-0.29
2019-03-19T04:02:09.487Z,-0.35
2019-03-19T04:03:09.414Z,-0.33
2019-03-19T04:04:09.370Z,-0.33
2019-03-19T04:05:09.483Z,-0.32
2019-03-19T04:06:09.260Z,-0.36
2019-03-19T04:07:09.182Z,-0.25
2019-03-19T04:08:09.129Z,-0.28
2019-03-19T04:09:09.532Z,-0.29
2019-03-19T04:10:09.009Z,-0.25
2019-03-19T04:11:08.978Z,-0.25
2019-03-19T04:12:08.890Z,-0.24
2019-03-19T04:13:08.857Z,-0.24
2019-03-19T04:14:08.765Z,-0.18
2019-03-19T04:15:08.720Z,-0.21
2019-03-19T04:16:08.709Z,-0.19
2019-03-19T04:17:08.592Z,-0.17
2019-03-19T04:18:08.541Z,-0.14
2019-03-19T04:19:08.483Z,-0.08
2019-03-19T04:20:08.431Z,-0.12
2019-03-19T04:21:08.396Z,-0.08
2019-03-19T04:22:08.304Z,-0.08
2019-03-19T04:23:08.242Z,-0.04
2019-03-19T04:24:08.198Z,-0.08
2019-03-19T04:25:08.126Z,0.00
2019-03-19T04:26:08.101Z,0.04
2019-03-19T04:27:16.070Z,0.07
2019-03-19T04:28:07.953Z,0.01
2019-03-19T04:29:07.898Z,-0.04
2019-03-19T04:30:07.854Z,0.03
2019-03-19T04:31:07.812Z,0.06
2019-03-19T04:32:07.725Z,-0.03
2019-03-19T04:33:07.668Z,-0.03
2019-03-19T04:34:07.614Z,0.01
2019-03-19T04:35:07.546Z,0.00
2019-03-19T04:36:07.509Z,-0.08
2019-03-19T04:37:07.424Z,-0.08
2019-03-19T04:38:07.371Z,-0.12
2019-03-19T04:39:07.311Z,-0.22
2019-03-19T04:40:07.251Z,-0.28
2019-03-19T04:41:07.221Z,-0.19
2019-03-19T04:42:07.178Z,-0.24
2019-03-19T04:43:07.073Z,-0.21
2019-03-19T04:44:07.023Z,-0.25
2019-03-19T04:45:06.954Z,-0.28
2019-03-19T04:46:06.960Z,-0.30
2019-03-19T04:47:06.839Z,-0.28
2019-03-19T04:48:06.790Z,-0.25
2019-03-19T04:49:06.735Z,-0.25
2019-03-19T04:50:06.698Z,-0.18
2019-03-19T04:51:06.632Z,-0.28
2019-03-19T04:52:06.577Z,-0.29
2019-03-19T04:53:06.486Z,-0.32
2019-03-19T04:54:06.429Z,-0.29
2019-03-19T04:55:06.374Z,-0.25
2019-03-19T04:56:06.371Z,-0.33
2019-03-19T04:57:06.254Z,-0.36
2019-03-19T04:58:06.190Z,-0.35
2019-03-19T04:59:06.145Z,-0.33
2019-03-19T05:00:06.083Z,-0.32
2019-03-19T05:01:06.053Z,-0.35
2019-03-19T05:02:05.957Z,-0.36
2019-03-19T05:03:05.916Z,-0.33
2019-03-19T05:04:05.835Z,-0.36
2019-03-19T05:05:05.783Z,-0.19
2019-03-19T05:06:05.775Z,-0.28
2019-03-19T05:07:05.672Z,-0.24
2019-03-19T05:08:05.610Z,-0.21
2019-03-19T05:09:05.557Z,-0.28
2019-03-19T05:10:05.495Z,-0.28
2019-03-19T05:11:05.482Z,-0.19
2019-03-19T05:12:05.367Z,-0.29
2019-03-19T05:13:05.340Z,-0.19
2019-03-19T05:14:05.259Z,-0.22
2019-03-19T05:15:05.198Z,-0.22
2019-03-19T05:16:05.185Z,-0.24
2019-03-19T05:17:05.083Z,-0.28
2019-03-19T05:18:05.028Z,-0.33
2019-03-19T05:19:04.973Z,-0.32
2019-03-19T05:20:04.907Z,-0.19
2019-03-19T05:21:04.877Z,-0.25
2019-03-19T05:22:04.799Z,-0.21
2019-03-19T05:23:04.732Z,-0.09
2019-03-19T05:24:04.675Z,-0.14
2019-03-19T05:25:04.643Z,-0.12
2019-03-19T05:26:04.576Z,0.03
2019-03-19T05:27:04.498Z,-0.03
2019-03-19T05:28:04.435Z,-0.06
2019-03-19T05:29:04.373Z,-0.11
2019-03-19T05:30:04.318Z,-0.04
2019-03-19T05:31:04.282Z,-0.09
2019-03-19T05:32:04.200Z,-0.09
2019-03-19T05:33:04.168Z,-0.12
2019-03-19T05:34:04.103Z,-0.18
2019-03-19T05:35:04.027Z,-0.18
2019-03-19T05:36:03.988Z,-0.25
2019-03-19T05:37:03.934Z,-0.21
2019-03-19T05:38:03.843Z,-0.18
2019-03-19T05:39:03.790Z,-0.25
2019-03-19T05:40:03.766Z,-0.24
2019-03-19T05:41:03.737Z,-0.33
2019-03-19T05:42:03.762Z,-0.30
2019-03-19T05:43:03.555Z,-0.25
2019-03-19T05:44:03.548Z,-0.29
2019-03-19T05:45:03.447Z,-0.29
2019-03-19T05:46:03.388Z,-0.30
2019-03-19T05:47:03.359Z,-0.25
2019-03-19T05:48:03.264Z,-0.30
2019-03-19T05:49:03.203Z,-0.30
2019-03-19T05:50:03.145Z,-0.25
2019-03-19T05:51:03.083Z,-0.32
2019-03-19T05:52:03.058Z,-0.29
2019-03-19T05:53:02.973Z,-0.21
2019-03-19T05:54:02.926Z,-0.21
2019-03-19T05:55:02.845Z,-0.15
2019-03-19T05:56:02.798Z,-0.11
2019-03-19T05:57:02.773Z,-0.18
2019-03-19T05:58:02.676Z,-0.17
2019-03-19T05:59:02.625Z,-0.17
2019-03-19T06:00:02.562Z,-0.11
2019-03-19T06:01:02.506Z,-0.15
2019-03-19T06:02:02.468Z,-0.12
2019-03-19T06:03:02.395Z,-0.08
2019-03-19T06:04:02.328Z,-0.08
2019-03-19T06:05:02.260Z,-0.06
2019-03-19T06:06:02.231Z,-0.09
2019-03-19T06:07:02.177Z,-0.08
2019-03-19T06:08:02.083Z,0.01
2019-03-19T06:09:02.031Z,0.00
2019-03-19T06:10:01.973Z,0.01
2019-03-19T06:11:01.920Z,-0.12
2019-03-19T06:12:01.919Z,0.06
2019-03-19T06:13:01.795Z,0.06
2019-03-19T06:14:01.740Z,-0.03
2019-03-19T06:15:01.684Z,0.04
2019-03-19T06:16:01.618Z,0.15
2019-03-19T06:17:01.600Z,0.17
2019-03-19T06:18:01.508Z,0.15
2019-03-19T06:19:01.451Z,0.09
2019-03-19T06:20:01.399Z,0.12
2019-03-19T06:21:01.324Z,0.24
2019-03-19T06:22:01.300Z,0.12
2019-03-19T06:23:01.218Z,0.09
2019-03-19T06:24:01.154Z,0.15
2019-03-19T06:25:01.092Z,0.10
2019-03-19T06:26:01.030Z,0.19
2019-03-19T06:27:01.002Z,0.28
2019-03-19T06:28:01.089Z,0.22
2019-03-19T06:29:00.869Z,0.29
2019-03-19T06:30:00.805Z,0.32
2019-03-19T06:31:00.761Z,0.39
2019-03-19T06:32:00.718Z,0.37
2019-03-19T06:33:00.628Z,0.35
2019-03-19T06:34:00.577Z,0.50
2019-03-19T06:35:00.509Z,0.53
2019-03-19T06:36:00.453Z,0.56
2019-03-19T06:37:00.412Z,0.61
2019-03-19T06:38:00.331Z,0.59
2019-03-19T06:39:00.288Z,0.64
2019-03-19T06:40:00.329Z,0.79
2019-03-19T06:41:00.166Z,0.76
2019-03-19T06:42:00.134Z,0.73
2019-03-19T06:43:00.038Z,0.79
2019-03-19T06:43:59.985Z,0.80
2019-03-19T06:44:59.933Z,0.83
2019-03-19T06:45:59.868Z,0.86
2019-03-19T06:46:59.840Z,0.86
2019-03-19T06:47:59.754Z,0.86
2019-03-19T06:48:59.697Z,1.00
2019-03-19T06:49:59.641Z,1.05
2019-03-19T06:50:59.573Z,1.02
2019-03-19T06:51:59.545Z,1.12
2019-03-19T06:52:59.458Z,1.10
2019-03-19T06:53:59.408Z,1.27
2019-03-19T06:54:59.351Z,1.22
2019-03-19T06:55:59.291Z,1.23
2019-03-19T06:56:59.251Z,1.36
2019-03-19T06:57:59.173Z,1.44
2019-03-19T06:58:59.115Z,1.41
2019-03-19T06:59:59.062Z,1.49
2019-03-19T07:00:59.001Z,1.51
2019-03-19T07:01:58.975Z,1.48
2019-03-19T07:02:58.893Z,1.54
2019-03-19T07:03:58.827Z,1.59
2019-03-19T07:04:58.770Z,1.69
2019-03-19T07:05:58.718Z,1.73
2019-03-19T07:06:58.695Z,1.83
2019-03-19T07:07:58.611Z,1.84
2019-03-19T07:08:58.538Z,1.94
2019-03-19T07:09:58.485Z,1.91
2019-03-19T07:10:58.535Z,1.85
2019-03-19T07:11:58.394Z,1.88
2019-03-19T07:12:58.307Z,1.91
2019-03-19T07:13:58.270Z,1.99
2019-03-19T07:14:58.185Z,2.09
2019-03-19T07:15:58.159Z,2.13
2019-03-19T07:16:58.097Z,2.13
2019-03-19T07:17:58.042Z,2.22
2019-03-19T07:18:57.966Z,2.25
2019-03-19T07:19:57.907Z,2.24
2019-03-19T07:20:57.877Z,2.22
2019-03-19T07:21:57.844Z,2.29
2019-03-19T07:22:57.745Z,2.35
2019-03-19T07:23:57.680Z,2.50
2019-03-19T07:24:57.627Z,2.49
2019-03-19T07:25:57.605Z,2.57
2019-03-19T07:26:57.507Z,2.52
2019-03-19T07:27:57.487Z,2.58
2019-03-19T07:28:57.399Z,2.58
2019-03-19T07:29:57.327Z,2.60
2019-03-19T07:30:57.263Z,2.58
2019-03-19T07:31:57.230Z,2.64
2019-03-19T07:32:57.202Z,2.70
2019-03-19T07:33:57.120Z,2.78
2019-03-19T07:34:57.067Z,2.79
2019-03-19T07:35:57.003Z,2.81
2019-03-19T07:36:56.944Z,2.82
2019-03-19T07:37:56.910Z,2.86
2019-03-19T07:38:56.820Z,2.88
2019-03-19T07:39:56.765Z,2.99
2019-03-19T07:40:56.716Z,3.03
2019-03-19T07:41:56.643Z,2.96
2019-03-19T07:42:56.640Z,2.94
2019-03-19T07:43:56.538Z,2.92
2019-03-19T07:44:56.470Z,2.99
2019-03-19T07:45:56.425Z,3.03
2019-03-19T07:46:56.359Z,2.97
2019-03-19T07:47:56.362Z,3.06
2019-03-19T07:48:56.252Z,3.15
2019-03-19T07:49:56.188Z,3.09
2019-03-19T07:50:56.136Z,3.15
2019-03-19T07:51:56.090Z,3.00
2019-03-19T07:52:56.046Z,2.97
2019-03-19T07:53:55.970Z,2.85
2019-03-19T07:54:55.907Z,2.92
2019-03-19T07:55:55.853Z,2.89
2019-03-19T07:56:55.799Z,2.96
2019-03-19T07:57:55.766Z,2.89
2019-03-19T07:58:55.682Z,2.88
2019-03-19T07:59:55.633Z,2.96
2019-03-19T08:00:55.575Z,2.97
2019-03-19T08:01:55.533Z,3.04
2019-03-19T08:02:55.485Z,3.09
2019-03-19T08:03:55.400Z,3.10
2019-03-19T08:04:55.409Z,3.18
2019-03-19T08:05:55.306Z,3.21
2019-03-19T08:06:55.232Z,3.32
2019-03-19T08:07:55.197Z,3.36
2019-03-19T08:08:55.147Z,3.37
2019-03-19T08:09:55.065Z,3.35
2019-03-19T08:10:55.008Z,3.36
2019-03-19T08:11:54.961Z,3.36
2019-03-19T08:12:54.942Z,3.25
2019-03-19T08:13:54.844Z,3.35
2019-03-19T08:14:54.786Z,3.41
2019-03-19T08:15:54.778Z,3.36
2019-03-19T08:16:54.702Z,3.33
2019-03-19T08:17:54.675Z,3.25
2019-03-19T08:18:54.563Z,3.32
2019-03-19T08:19:54.523Z,3.25
2019-03-19T08:20:54.472Z,3.27
2019-03-19T08:21:54.393Z,3.22
2019-03-19T08:22:54.359Z,3.17
2019-03-19T08:23:54.273Z,3.29
2019-03-19T08:24:54.376Z,3.40
2019-03-19T08:25:54.165Z,3.51
2019-03-19T08:26:54.105Z,3.52
2019-03-19T08:27:54.078Z,3.52
2019-03-19T08:28:55.482Z,3.51
2019-03-19T08:29:53.938Z,3.55
2019-03-19T08:30:53.877Z,3.51
2019-03-19T08:31:53.854Z,3.61
2019-03-19T08:32:53.814Z,3.66
2019-03-19T08:33:53.714Z,3.61
2019-03-19T08:34:53.650Z,3.70
2019-03-19T08:35:53.593Z,3.73
2019-03-19T08:36:53.537Z,3.70
2019-03-19T08:37:53.508Z,3.68
2019-03-19T08:38:53.445Z,3.84
2019-03-19T08:39:53.367Z,3.86
2019-03-19T08:40:53.328Z,3.83
2019-03-19T08:41:53.266Z,3.80
2019-03-19T08:42:53.227Z,3.90
2019-03-19T08:43:53.204Z,3.84
2019-03-19T08:44:53.104Z,3.94
2019-03-19T08:45:53.031Z,3.95
2019-03-19T08:46:53.006Z,3.82
2019-03-19T08:47:53.080Z,3.80
2019-03-19T08:48:52.864Z,3.80
2019-03-19T08:49:52.845Z,3.92
2019-03-19T08:50:52.768Z,4.02
2019-03-19T08:51:52.698Z,4.04
2019-03-19T08:52:54.994Z,4.28
2019-03-19T08:53:52.584Z,4.26
2019-03-19T08:54:52.527Z,4.30
2019-03-19T08:55:52.478Z,4.46
2019-03-19T08:56:52.419Z,4.55
2019-03-19T08:57:52.397Z,4.56
2019-03-19T08:58:52.311Z,4.61
2019-03-19T08:59:52.263Z,4.67
2019-03-19T09:00:52.210Z,4.66
2019-03-19T09:01:52.154Z,4.70
2019-03-19T09:02:52.153Z,4.59
2019-03-19T09:03:52.029Z,4.63
2019-03-19T09:04:51.985Z,4.59
2019-03-19T09:05:51.910Z,4.59
2019-03-19T09:06:51.877Z,4.76
2019-03-19T09:07:51.805Z,4.79
2019-03-19T09:08:51.777Z,4.93
2019-03-19T09:09:51.703Z,5.08
2019-03-19T09:10:51.639Z,5.25
2019-03-19T09:11:51.588Z,5.40
2019-03-19T09:12:51.526Z,5.29
2019-03-19T09:13:51.540Z,5.25
2019-03-19T09:14:51.419Z,5.42
2019-03-19T09:15:51.391Z,5.49
2019-03-19T09:16:51.321Z,5.36
2019-03-19T09:17:51.258Z,5.19
2019-03-19T09:18:51.225Z,5.16
2019-03-19T09:19:59.015Z,5.19
2019-03-19T09:20:51.084Z,5.17
2019-03-19T09:21:51.028Z,5.13
2019-03-19T09:22:50.985Z,5.08
2019-03-19T09:23:50.945Z,5.22
2019-03-19T09:24:50.866Z,5.42
2019-03-19T09:25:50.811Z,5.50
2019-03-19T09:26:50.755Z,5.59
2019-03-19T09:27:50.701Z,5.58
2019-03-19T09:28:50.668Z,5.50
2019-03-19T09:29:50.589Z,5.44
2019-03-19T09:30:50.542Z,5.29
2019-03-19T09:31:50.478Z,5.25
2019-03-19T09:32:50.426Z,5.28
2019-03-19T09:33:50.391Z,5.35
2019-03-19T09:34:50.320Z,5.46
2019-03-19T09:35:50.260Z,5.53
2019-03-19T09:36:57.193Z,5.68
2019-03-19T09:37:58.404Z,5.65
2019-03-19T09:38:50.118Z,5.67
2019-03-19T09:39:50.039Z,5.74
2019-03-19T09:40:49.985Z,5.85
2019-03-19T09:41:49.928Z,5.85
2019-03-19T09:42:49.885Z,5.87
2019-03-19T09:43:49.845Z,5.89
2019-03-19T09:44:58.150Z,5.89
2019-03-19T09:45:49.719Z,5.95
2019-03-19T09:46:49.656Z,5.89
2019-03-19T09:47:49.599Z,6.03
2019-03-19T09:48:49.570Z,5.94
2019-03-19T09:49:49.489Z,6.08
2019-03-19T09:50:49.435Z,6.19
2019-03-19T09:51:49.383Z,6.35
2019-03-19T09:52:49.329Z,6.42
2019-03-19T09:53:49.296Z,6.49
2019-03-19T09:54:49.217Z,6.65
2019-03-19T09:55:49.160Z,6.70
2019-03-19T09:56:49.105Z,6.63
2019-03-19T09:57:49.050Z,6.59
2019-03-19T09:58:49.018Z,6.47
2019-03-19T09:59:48.938Z,6.52
2019-03-19T10:00:48.891Z,6.60
2019-03-19T10:01:48.837Z,6.60
2019-03-19T10:02:48.782Z,6.70
2019-03-19T10:03:48.750Z,6.67
2019-03-19T10:04:48.670Z,6.78
2019-03-19T10:05:48.616Z,6.83
2019-03-19T10:06:48.569Z,6.80
2019-03-19T10:07:48.504Z,6.77
2019-03-19T10:08:48.478Z,6.92
2019-03-19T10:09:48.397Z,7.13
2019-03-19T10:10:48.349Z,7.21
2019-03-19T10:11:48.297Z,7.38
2019-03-19T10:12:48.241Z,7.54
2019-03-19T10:13:48.208Z,7.54
2019-03-19T10:14:48.132Z,7.49
2019-03-19T10:15:48.073Z,7.50
2019-03-19T10:16:48.018Z,7.46
2019-03-19T10:17:48.020Z,7.35
2019-03-19T10:18:47.933Z,7.28
2019-03-19T10:19:47.862Z,7.25
2019-03-19T10:20:47.804Z,7.34
2019-03-19T10:21:47.752Z,7.32
2019-03-19T10:22:47.698Z,7.44
2019-03-19T10:23:47.665Z,7.49
2019-03-19T10:24:47.587Z,7.62
2019-03-19T10:25:47.536Z,7.76
2019-03-19T10:26:47.480Z,7.64
2019-03-19T10:27:47.427Z,7.62
2019-03-19T10:28:47.398Z,7.70
2019-03-19T10:29:47.324Z,7.73
2019-03-19T10:30:47.266Z,7.88
2019-03-19T10:31:47.213Z,8.01
2019-03-19T10:32:47.154Z,8.02
2019-03-19T10:33:47.123Z,7.87
2019-03-19T10:34:47.048Z,7.79
2019-03-19T10:35:46.995Z,7.73
2019-03-19T10:36:46.942Z,7.66
2019-03-19T10:37:46.897Z,7.68
2019-03-19T10:38:46.861Z,7.72
2019-03-19T10:39:46.784Z,7.72
2019-03-19T10:40:46.728Z,7.69
2019-03-19T10:41:46.672Z,7.79
2019-03-19T10:42:46.625Z,7.66
2019-03-19T10:43:46.593Z,7.80
2019-03-19T10:44:46.521Z,7.80
2019-03-19T10:45:46.463Z,7.79
2019-03-19T10:46:46.403Z,7.94
2019-03-19T10:47:46.356Z,8.08
2019-03-19T10:48:46.333Z,8.23
2019-03-19T10:49:46.245Z,8.31
2019-03-19T10:50:46.197Z,8.36
2019-03-19T10:51:46.139Z,8.36
2019-03-19T10:52:46.096Z,8.39
2019-03-19T10:53:46.056Z,8.42
2019-03-19T10:54:45.996Z,8.36
2019-03-19T10:55:45.925Z,8.23
2019-03-19T10:56:45.870Z,8.30
2019-03-19T10:57:45.819Z,8.29
2019-03-19T10:58:45.767Z,8.42
2019-03-19T10:59:49.368Z,8.59
2019-03-19T11:00:45.656Z,8.70
2019-03-19T11:01:45.596Z,8.77
2019-03-19T11:02:45.550Z,8.84
2019-03-19T11:03:45.498Z,8.93
2019-03-19T11:04:45.467Z,8.93
2019-03-19T11:05:45.378Z,9.05
2019-03-19T11:06:45.333Z,9.05
2019-03-19T11:07:45.289Z,9.16
2019-03-19T11:08:45.231Z,9.03
2019-03-19T11:09:45.201Z,9.15
2019-03-19T11:10:45.124Z,9.14
2019-03-19T11:11:45.072Z,9.18
2019-03-19T11:12:45.020Z,9.26
2019-03-19T11:13:44.964Z,9.39
2019-03-19T11:14:44.939Z,9.39
2019-03-19T11:15:44.858Z,9.29
2019-03-19T11:16:44.805Z,9.21
2019-03-19T11:17:44.756Z,9.03
2019-03-19T11:18:44.703Z,9.22
2019-03-19T11:19:44.672Z,9.24
2019-03-19T11:20:45.516Z,9.29
2019-03-19T11:21:44.543Z,9.47
2019-03-19T11:22:44.488Z,9.61
2019-03-19T11:23:44.438Z,9.62
2019-03-19T11:24:44.410Z,9.51
2019-03-19T11:25:54.193Z,9.64
2019-03-19T11:26:44.280Z,9.61
2019-03-19T11:27:44.229Z,9.61
2019-03-19T11:28:44.173Z,9.49
2019-03-19T11:29:44.145Z,9.55
2019-03-19T11:30:44.066Z,9.67
2019-03-19T11:31:44.019Z,9.72
2019-03-19T11:32:43.963Z,9.79
2019-03-19T11:33:43.911Z,9.86
2019-03-19T11:34:43.885Z,9.86
2019-03-19T11:35:45.610Z,9.86
2019-03-19T11:36:43.756Z,9.97
2019-03-19T11:37:43.706Z,10.06
2019-03-19T11:38:43.656Z,10.13
2019-03-19T11:39:43.623Z,9.88
2019-03-19T11:40:43.596Z,9.88
2019-03-19T11:41:43.493Z,9.91
2019-03-19T11:42:43.437Z,9.90
2019-03-19T11:43:43.390Z,9.91
2019-03-19T11:44:43.365Z,10.04
2019-03-19T11:45:43.289Z,10.26
2019-03-19T11:46:43.240Z,10.18
2019-03-19T11:47:43.184Z,10.18
2019-03-19T11:48:43.129Z,10.12
2019-03-19T11:49:43.097Z,9.94
2019-03-19T11:50:43.027Z,9.86
2019-03-19T11:51:42.975Z,9.54
2019-03-19T11:52:42.924Z,9.49
2019-03-19T11:53:42.867Z,9.43
2019-03-19T11:54:42.840Z,9.46
2019-03-19T11:55:42.769Z,9.42
2019-03-19T11:56:42.713Z,9.44
2019-03-19T11:57:42.666Z,9.44
2019-03-19T11:58:42.610Z,9.33
2019-03-19T11:59:42.585Z,9.21
2019-03-19T12:00:42.504Z,9.11
2019-03-19T12:01:42.454Z,9.18
2019-03-19T12:02:42.400Z,9.10
2019-03-19T12:03:42.349Z,9.03
2019-03-19T12:04:42.322Z,8.98
2019-03-19T12:05:42.251Z,9.06
2019-03-19T12:06:42.201Z,9.02
2019-03-19T12:07:42.140Z,9.00
2019-03-19T12:08:42.090Z,8.99
2019-03-19T12:09:42.059Z,9.02
2019-03-19T12:10:41.986Z,8.99
2019-03-19T12:11:41.926Z,9.00
2019-03-19T12:12:41.875Z,8.90
2019-03-19T12:13:41.821Z,8.88
2019-03-19T12:14:41.796Z,8.75
2019-03-19T12:15:41.721Z,8.77
2019-03-19T12:16:41.670Z,8.87
2019-03-19T12:17:41.618Z,8.75
2019-03-19T12:18:41.563Z,8.80
2019-03-19T12:19:41.536Z,8.91
2019-03-19T12:20:41.461Z,8.90
2019-03-19T12:21:41.402Z,8.99
2019-03-19T12:22:41.345Z,8.98
2019-03-19T12:23:41.299Z,9.21
2019-03-19T12:24:41.283Z,9.36
2019-03-19T12:25:41.200Z,9.46
2019-03-19T12:26:41.131Z,9.49
2019-03-19T12:27:41.086Z,9.58
2019-03-19T12:28:41.032Z,9.83
2019-03-19T12:29:40.981Z,9.79
2019-03-19T12:30:40.951Z,9.75
2019-03-19T12:31:40.867Z,9.75
2019-03-19T12:32:40.815Z,9.70
2019-03-19T12:33:41.481Z,9.70
2019-03-19T12:34:40.719Z,9.67
2019-03-19T12:35:40.698Z,9.72
2019-03-19T12:36:40.606Z,9.69
2019-03-19T12:37:40.559Z,9.70
2019-03-19T12:38:40.504Z,9.65
2019-03-19T12:39:40.452Z,9.51
2019-03-19T12:40:40.419Z,9.54
2019-03-19T12:41:40.344Z,9.51
2019-03-19T12:42:40.286Z,9.54
2019-03-19T12:43:40.242Z,9.52
2019-03-19T12:44:40.187Z,9.55
2019-03-19T12:45:40.162Z,9.42
2019-03-19T12:46:40.146Z,9.37
2019-03-19T12:47:40.028Z,9.36
2019-03-19T12:48:39.980Z,9.33
2019-03-19T12:49:39.930Z,9.32
2019-03-19T12:50:39.898Z,9.34
2019-03-19T12:51:39.819Z,9.43
2019-03-19T12:52:39.771Z,9.44
2019-03-19T12:53:39.717Z,9.51
2019-03-19T12:54:39.661Z,9.51
2019-03-19T12:55:39.634Z,9.40
2019-03-19T12:56:39.561Z,9.44
2019-03-19T12:57:39.508Z,9.33
2019-03-19T12:58:39.446Z,9.29
2019-03-19T12:59:39.406Z,9.33
2019-03-19T13:00:39.365Z,9.26
2019-03-19T13:01:39.294Z,9.08
2019-03-19T13:02:39.241Z,9.05
2019-03-19T13:03:39.192Z,9.11
2019-03-19T13:04:39.139Z,9.03
2019-03-19T13:05:39.108Z,8.99
2019-03-19T13:06:39.036Z,8.91
2019-03-19T13:07:38.981Z,8.91
2019-03-19T13:08:38.920Z,8.99
2019-03-19T13:09:38.875Z,9.02
2019-03-19T13:10:38.849Z,9.19
2019-03-19T13:11:38.771Z,9.39
2019-03-19T13:12:38.719Z,9.55
2019-03-19T13:13:40.879Z,9.57
2019-03-19T13:14:38.605Z,9.52